Time;durP1;ratioP1;P1;durP2;ratioP2;P2;SDS_P1;SDS_P2;PMS_P1;PMS_P2;Temp;Humidity;BMP_temperature;BMP_pressure;BME280_temperature;BME280_humidity;BME280_pressure;Samples;Min_cycle;Max_cycle;Signal;HPM_P1;HPM_P2
2022/04/05 00:02:08;;;;;;;26.27;13.60;;;;;;;7.50;78.81;98813.94;5052958;28;20192;-85
2022/04/05 00:04:34;;;;;;;23.07;13.20;;;;;;;6.86;77.65;98689.31;5035020;28;20595;-85
2022/04/05 00:06:59;;;;;;;25.13;13.97;;;;;;;9.90;78.13;99199.91;5052628;28;20260;-85
2022/04/05 00:09:24;;;;;;;54.73;30.77;;;;;;;9.63;78.27;99145.66;5052290;28;20185;-85
2022/04/05 00:11:50;;;;;;;61.83;33.50;;;;;;;8.40;76.94;98896.19;5052715;28;20167;-85
2022/04/05 00:14:15;;;;;;;37.67;22.00;;;;;;;10.15;76.34;99206.03;5051331;28;20625;-85
2022/04/05 00:16:41;;;;;;;29.63;18.97;;;;;;;7.56;76.24;98757.97;5052839;28;20619;-85
2022/04/05 00:19:06;;;;;;;41.90;22.27;;;;;;;7.98;75.71;98827.91;5035119;28;20258;-86
2022/04/05 00:21:32;;;;;;;31.80;17.90;;;;;;;9.13;77.32;99056.69;5052686;28;20208;-85
2022/04/05 00:23:57;;;;;;;28.13;16.60;;;;;;;9.09;77.16;99075.06;5053158;28;20170;-85
2022/04/05 00:26:22;;;;;;;32.40;16.50;;;;;;;9.54;76.31;99135.13;5052577;28;20203;-86
2022/04/05 00:28:48;;;;;;;30.90;17.47;;;;;;;8.33;77.64;98998.41;5052906;28;20199;-86
2022/04/05 00:31:13;;;;;;;30.87;16.47;;;;;;;7.85;78.24;98900.38;5052711;28;20261;-85
2022/04/05 00:33:39;;;;;;;29.87;16.40;;;;;;;9.16;77.80;99125.00;5056051;28;20172;-86
2022/04/05 00:36:05;;;;;;;32.17;16.50;;;;;;;7.89;78.93;98945.94;5054341;28;20176;-86
2022/04/05 00:38:30;;;;;;;30.50;16.50;;;;;;;9.42;79.67;99197.78;5070884;28;20173;-85
2022/04/05 00:40:56;;;;;;;29.57;16.67;;;;;;;9.49;79.73;99194.72;5062726;28;20594;-86
2022/04/05 00:43:21;;;;;;;36.20;17.30;;;;;;;8.93;78.90;99078.53;5055816;28;20162;-85
2022/04/05 00:45:47;;;;;;;29.77;16.80;;;;;;;9.67;77.99;99167.72;5054895;28;20191;-87
2022/04/05 00:48:26;;;;;;;36.33;20.97;;;;;;;8.62;76.97;98949.28;5054314;28;20162;-86
2022/04/05 00:50:52;;;;;;;55.60;29.53;;;;;;;10.01;76.65;99163.31;5053709;28;20233;-85
2022/04/05 00:53:17;;;;;;;34.13;18.20;;;;;;;9.33;75.75;99040.75;5055446;28;20170;-84
2022/04/05 00:55:43;;;;;;;32.90;19.03;;;;;;;9.20;75.34;99018.31;5051960;28;20778;-87
2022/04/05 00:58:10;;;;;;;33.67;18.20;;;;;;;8.53;75.22;98881.63;5035424;28;20208;-86
2022/04/05 01:00:39;;;;;;;33.73;18.50;;;;;;;9.53;74.79;99037.41;5035223;28;20184;-86
2022/04/05 01:03:06;;;;;;;29.97;17.57;;;;;;;9.63;74.15;99036.09;5039904;28;20193;-88
2022/04/05 01:05:34;;;;;;;31.50;18.27;;;;;;;8.98;72.61;98923.13;5035669;28;20269;-86
2022/04/05 01:08:02;;;;;;;30.17;17.93;;;;;;;9.18;72.22;98928.97;5054201;28;20181;-87
2022/04/05 01:10:29;;;;;;;27.73;16.63;;;;;;;10.06;73.33;99106.19;5052034;28;20205;-87
2022/04/05 01:12:55;;;;;;;29.57;16.57;;;;;;;9.69;73.28;99019.53;5053206;28;20161;-84
2022/04/05 01:15:20;;;;;;;32.63;17.33;;;;;;;8.94;72.65;98877.47;5035202;28;20176;-85
2022/04/05 01:17:46;;;;;;;35.27;18.47;;;;;;;9.50;72.47;98997.69;5034779;28;20252;-86
2022/04/05 01:20:11;;;;;;;31.97;18.77;;;;;;;10.61;72.69;99136.25;5052212;28;20161;-86
2022/04/05 01:22:45;;;;;;;31.83;19.70;;;;;;;10.55;73.33;99143.59;5055935;28;20217;-87
2022/04/05 01:25:15;;;;;;;36.23;20.50;;;;;;;7.45;73.11;98606.41;5055502;28;20166;-87
2022/04/05 01:27:41;;;;;;;31.63;17.53;;;;;;;7.57;73.51;98629.59;5053909;28;20173;-85
2022/04/05 01:30:06;;;;;;;29.30;17.07;;;;;;;7.40;74.13;98612.03;5055323;28;20187;-86
2022/04/05 01:32:32;;;;;;;28.47;17.47;;;;;;;9.22;74.40;98926.66;5036196;28;20256;-86
2022/04/05 01:34:57;;;;;;;32.23;18.37;;;;;;;8.47;74.14;98792.22;5052613;28;20171;-86
2022/04/05 01:37:23;;;;;;;37.63;18.40;;;;;;;8.94;74.75;98880.00;5054016;28;20225;-87
2022/04/05 01:39:48;;;;;;;29.00;16.53;;;;;;;8.41;75.94;98789.44;5055957;28;20630;-85
2022/04/05 01:42:14;;;;;;;30.60;17.20;;;;;;;7.88;76.38;98724.13;5053128;28;20162;-86
2022/04/05 01:44:41;;;;;;;32.23;18.53;;;;;;;10.16;76.57;99117.59;5055216;28;20168;-87
2022/04/05 01:47:13;;;;;;;31.33;18.90;;;;;;;8.29;75.97;98772.16;5056625;28;20181;-85
2022/04/05 01:49:41;;;;;;;34.13;18.83;;;;;;;9.28;75.43;98947.13;5055813;28;20238;-86
2022/04/05 01:52:09;;;;;;;36.50;18.00;;;;;;;10.36;74.51;99104.03;5054684;28;20200;-87
2022/04/05 01:54:34;;;;;;;35.17;19.57;;;;;;;7.22;74.47;98602.06;5056639;28;20525;-85
2022/04/05 01:57:00;;;;;;;38.50;20.50;;;;;;;10.41;74.12;99109.31;5058719;28;20193;-86
2022/04/05 01:59:28;;;;;;;34.97;18.57;;;;;;;9.49;73.35;98945.44;5033916;28;20158;-85
2022/04/05 02:01:53;;;;;;;30.30;16.80;;;;;;;10.45;71.42;99116.19;5053680;28;20165;-86
2022/04/05 02:04:19;;;;;;;29.27;16.90;;;;;;;9.47;72.05;98938.63;5052066;28;20553;-87
2022/04/05 02:06:45;;;;;;;30.87;15.83;;;;;;;10.03;71.53;99049.56;5035181;28;20284;-86
2022/04/05 02:09:14;;;;;;;31.13;15.73;;;;;;;10.46;71.15;99105.28;5056879;28;20189;-86
2022/04/05 02:11:43;;;;;;;25.73;14.80;;;;;;;9.64;71.31;98993.19;5054342;28;20177;-86
2022/04/05 02:14:10;;;;;;;26.07;14.93;;;;;;;10.23;71.48;99109.44;5056123;28;20158;-86
2022/04/05 02:16:35;;;;;;;63.27;33.73;;;;;;;9.13;73.05;98917.81;5056976;28;20165;-85
2022/04/05 02:19:00;;;;;;;30.73;17.47;;;;;;;7.36;71.70;98602.66;5056895;28;20229;-85
2022/04/05 02:21:26;;;;;;;33.77;16.40;;;;;;;9.04;71.71;98889.69;5057411;28;20652;-85
2022/04/05 02:23:51;;;;;;;35.63;17.70;;;;;;;9.19;72.48;98908.84;5061038;28;20169;-85
2022/04/05 02:26:17;;;;;;;31.60;17.43;;;;;;;8.57;72.60;98774.16;5062402;28;20173;-85
2022/04/05 02:28:42;;;;;;;34.43;18.23;;;;;;;9.05;73.24;98856.03;5056153;28;20158;-85
2022/04/05 02:31:08;;;;;;;36.17;20.60;;;;;;;8.59;73.54;98798.66;5055271;28;20641;-85
2022/04/05 02:33:34;;;;;;;36.87;19.60;;;;;;;10.54;73.51;99114.03;5055821;28;20656;-85
2022/04/05 02:36:00;;;;;;;37.30;19.77;;;;;;;9.93;73.61;99007.88;5055912;28;20161;-85
2022/04/05 02:38:25;;;;;;;38.10;20.33;;;;;;;7.20;73.18;98553.28;5055213;28;20193;-86
2022/04/05 02:40:52;;;;;;;35.17;18.83;;;;;;;10.50;73.28;99117.25;5054138;28;20215;-85
2022/04/05 02:43:21;;;;;;;33.13;18.57;;;;;;;6.88;73.17;98485.63;5054656;28;20648;-85
2022/04/05 02:45:47;;;;;;;34.13;18.07;;;;;;;7.52;72.80;98597.47;5036571;28;20226;-86
2022/04/05 02:48:12;;;;;;;32.67;17.00;;;;;;;8.16;73.49;98730.38;5053300;28;20214;-85
2022/04/05 02:50:37;;;;;;;35.13;19.17;;;;;;;9.76;72.79;98987.78;5054685;28;20198;-85
2022/04/05 02:53:03;;;;;;;33.67;18.80;;;;;;;8.93;72.42;98856.41;5054648;28;20635;-85
2022/04/05 02:55:28;;;;;;;38.07;19.63;;;;;;;9.13;73.63;98897.63;5054134;28;20681;-86
2022/04/05 02:57:54;;;;;;;35.13;17.77;;;;;;;9.32;72.61;98920.28;5054420;28;20587;-85
2022/04/05 03:00:19;;;;;;;30.90;17.17;;;;;;;8.01;72.24;98698.63;5054969;28;20244;-85
2022/04/05 03:02:45;;;;;;;30.20;16.87;;;;;;;10.43;71.18;99087.44;5054430;28;20180;-86
2022/04/05 03:05:13;;;;;;;42.27;18.13;;;;;;;7.84;73.64;98657.63;5053068;28;20189;-85
2022/04/05 03:07:38;;;;;;;32.60;17.07;;;;;;;9.32;73.54;98915.25;5052716;28;20177;-85
2022/04/05 03:10:06;;;;;;;30.37;16.87;;;;;;;8.22;73.99;98755.00;5053956;28;20280;-85
2022/04/05 03:12:33;;;;;;;36.90;19.63;;;;;;;10.27;74.89;99100.31;5053786;28;20185;-85
2022/04/05 03:14:58;;;;;;;36.73;19.97;;;;;;;7.34;74.58;98610.13;5053763;28;20166;-86
2022/04/05 03:17:23;;;;;;;29.57;17.63;;;;;;;8.09;74.68;98762.84;5053258;28;20292;-85
2022/04/05 03:19:49;;;;;;;35.13;16.93;;;;;;;9.72;75.51;99041.56;5035505;28;20162;-85
2022/04/05 03:22:16;;;;;;;28.87;15.33;;;;;;;9.14;75.21;98937.22;5040410;28;20189;-85
2022/04/05 03:24:42;;;;;;;33.13;16.97;;;;;;;7.51;75.02;98639.41;5038018;28;20634;-85
2022/04/05 03:27:08;;;;;;;27.60;15.53;;;;;;;8.65;75.19;98823.28;5053567;28;20173;-85
2022/04/05 03:29:33;;;;;;;31.53;15.53;;;;;;;8.81;75.90;98858.44;5053606;28;20192;-86
2022/04/05 03:31:59;;;;;;;29.60;15.73;;;;;;;8.66;75.22;98833.41;5052447;28;20189;-86
2022/04/05 03:34:24;;;;;;;28.97;15.73;;;;;;;7.56;74.90;98688.31;5053771;28;20166;-86
2022/04/05 03:36:49;;;;;;;32.63;15.00;;;;;;;9.46;75.14;98965.53;5053405;28;20296;-85
2022/04/05 03:39:15;;;;;;;27.07;14.50;;;;;;;8.34;72.76;98758.06;5053077;28;20236;-85
2022/04/05 03:41:41;;;;;;;31.93;16.53;;;;;;;10.32;71.79;99084.50;5052817;28;20154;-86
2022/04/05 03:44:06;;;;;;;34.50;17.40;;;;;;;10.16;70.55;99076.25;5053180;28;20165;-86
2022/04/05 03:46:32;;;;;;;22.90;12.53;;;;;;;8.04;68.65;98774.38;5035250;28;20192;-85
2022/04/05 03:48:58;;;;;;;23.97;13.37;;;;;;;8.28;68.73;98804.06;5053141;28;20165;-86
2022/04/05 03:51:24;;;;;;;32.27;16.83;;;;;;;8.67;69.28;98888.13;5053157;28;20621;-85
2022/04/05 03:53:49;;;;;;;26.63;14.67;;;;;;;8.00;69.24;98750.69;5054623;28;20165;-85
2022/04/05 03:56:15;;;;;;;26.73;15.63;;;;;;;9.02;69.67;98931.66;5037175;28;20180;-85
2022/04/05 03:58:40;;;;;;;30.00;16.93;;;;;;;9.97;69.83;99093.16;5054501;28;20694;-85
2022/04/05 04:01:07;;;;;;;35.57;17.60;;;;;;;9.37;70.08;99023.25;5053680;28;20311;-85
2022/04/05 04:03:33;;;;;;;171.20;76.23;;;;;;;8.72;67.63;98899.28;5055028;28;20181;-86
2022/04/05 04:05:59;;;;;;;37.07;20.20;;;;;;;9.12;68.81;98999.44;5052889;28;20165;-85
2022/04/05 04:08:25;;;;;;;27.53;15.80;;;;;;;6.48;69.73;98566.00;5052797;28;20523;-86
2022/04/05 04:10:51;;;;;;;30.03;14.67;;;;;;;8.69;71.75;98974.84;5051395;28;20200;-86
2022/04/05 04:13:17;;;;;;;28.97;14.33;;;;;;;8.91;71.82;98986.75;5052858;28;20157;-85
2022/04/05 04:15:42;;;;;;;16.63;10.67;;;;;;;6.35;70.40;98546.09;5053055;28;20161;-87
2022/04/05 04:18:08;;;;;;;25.37;13.87;;;;;;;8.07;69.08;98804.75;5052636;28;20232;-86
2022/04/05 04:20:33;;;;;;;35.63;17.57;;;;;;;7.52;68.98;98756.13;5052521;28;20271;-86
2022/04/05 04:22:58;;;;;;;19.10;11.57;;;;;;;9.63;68.86;99079.06;5052320;28;20175;-86
2022/04/05 04:25:24;;;;;;;18.17;9.13;;;;;;;8.18;68.20;98842.25;5051218;28;20180;-85
2022/04/05 04:27:49;;;;;;;17.90;9.10;;;;;;;9.19;69.47;99036.75;5052360;28;20244;-85
2022/04/05 04:30:15;;;;;;;14.27;8.80;;;;;;;8.72;68.49;98939.66;5033529;28;20197;-85
2022/04/05 04:32:40;;;;;;;14.20;8.43;;;;;;;8.95;68.89;98959.97;5034607;28;20172;-85
2022/04/05 04:35:07;;;;;;;30.03;20.73;;;;;;;8.23;67.83;98842.44;5051014;28;20238;-85
2022/04/05 04:37:33;;;;;;;28.97;20.33;;;;;;;8.44;67.63;98878.72;5052272;28;20228;-85
2022/04/05 04:39:59;;;;;;;35.40;17.93;;;;;;;9.84;67.47;99090.94;5052325;28;20162;-86
2022/04/05 04:42:24;;;;;;;29.27;13.40;;;;;;;9.90;67.42;99093.72;5034099;28;20162;-85
2022/04/05 04:44:50;;;;;;;17.47;9.63;;;;;;;8.38;65.99;98839.78;5051947;28;20173;-84
2022/04/05 04:47:17;;;;;;;25.10;10.97;;;;;;;8.37;66.14;98808.63;5052038;28;20520;-88
2022/04/05 04:49:42;;;;;;;30.50;13.93;;;;;;;9.80;65.90;99063.81;5052222;28;20181;-85
2022/04/05 04:52:07;;;;;;;23.87;12.13;;;;;;;8.43;65.66;98823.16;5010504;28;20233;-85
2022/04/05 04:54:33;;;;;;;26.10;12.03;;;;;;;8.65;64.45;98835.91;5040013;28;20264;-85
2022/04/05 04:56:58;;;;;;;65.90;32.47;;;;;;;10.00;66.15;99100.88;5052881;28;20175;-85
2022/04/05 04:59:23;;;;;;;36.13;15.63;;;;;;;8.05;65.12;98760.97;5058717;28;20175;-85
2022/04/05 05:01:49;;;;;;;36.13;15.77;;;;;;;9.40;64.97;98975.38;5072092;28;20153;-85
2022/04/05 05:04:14;;;;;;;28.23;13.87;;;;;;;9.39;65.16;98985.44;5062489;28;20244;-85
2022/04/05 05:06:40;;;;;;;40.00;20.90;;;;;;;8.20;64.93;98754.94;5051632;28;20578;-85
2022/04/05 05:09:05;;;;;;;71.20;31.37;;;;;;;10.03;64.84;99036.91;5033630;28;20188;-86
2022/04/05 05:11:30;;;;;;;38.63;17.23;;;;;;;9.83;64.56;99045.38;5064274;28;20165;-86
2022/04/05 05:13:56;;;;;;;21.67;11.43;;;;;;;9.15;64.36;98908.63;5064151;28;20176;-88
2022/04/05 05:16:21;;;;;;;34.47;15.47;;;;;;;7.82;64.51;98663.38;5051155;28;20480;-85
2022/04/05 05:18:47;;;;;;;21.00;12.23;;;;;;;8.00;64.25;98707.84;5051273;28;20597;-84
2022/04/05 05:21:12;;;;;;;31.97;16.43;;;;;;;8.51;63.52;98774.78;5051776;28;20374;-85
2022/04/05 05:23:37;;;;;;;23.27;12.30;;;;;;;8.34;63.14;98720.25;5033979;28;20606;-84
2022/04/05 05:26:03;;;;;;;30.07;15.10;;;;;;;8.12;63.43;98683.19;5051231;28;20228;-84
2022/04/05 05:28:28;;;;;;;33.40;17.77;;;;;;;8.04;63.29;98673.56;5033389;28;20173;-84
2022/04/05 05:30:54;;;;;;;22.23;12.23;;;;;;;9.70;63.27;98947.97;5051127;28;20197;-84
2022/04/05 05:33:19;;;;;;;18.60;10.37;;;;;;;8.97;63.15;98815.34;5051273;28;20168;-84
2022/04/05 05:35:45;;;;;;;32.63;19.50;;;;;;;9.41;62.31;98888.72;5043815;28;20650;-85
2022/04/05 05:38:10;;;;;;;25.60;16.03;;;;;;;9.39;60.01;98837.22;5038451;28;20566;-85
2022/04/05 05:40:35;;;;;;;23.47;14.23;;;;;;;8.59;58.71;98651.47;5051537;28;20183;-83
2022/04/05 05:43:03;;;;;;;16.57;9.57;;;;;;;11.39;58.32;99105.44;5051104;28;20247;-84
2022/04/05 05:45:34;;;;;;;12.80;8.03;;;;;;;9.91;57.80;98822.41;5051182;28;20164;-85
2022/04/05 05:48:00;;;;;;;15.43;8.50;;;;;;;9.77;56.98;98802.47;5058775;28;20173;-85
2022/04/05 05:50:26;;;;;;;19.33;8.60;;;;;;;11.15;56.75;99006.59;5032805;28;20590;-85
2022/04/05 05:52:52;;;;;;;14.43;8.40;;;;;;;10.76;56.58;98900.53;5041283;28;20240;-83
2022/04/05 05:55:19;;;;;;;18.20;10.03;;;;;;;11.81;56.81;99089.19;5050693;28;20606;-83
2022/04/05 05:57:45;;;;;;;28.23;16.57;;;;;;;11.46;58.81;99020.31;5051467;28;20177;-82
2022/04/05 06:00:17;;;;;;;33.73;18.47;;;;;;;11.96;59.59;99093.03;5055757;28;20160;-85
2022/04/05 06:02:44;;;;;;;35.53;19.63;;;;;;;11.33;60.00;98980.16;5053302;28;20162;-85
2022/04/05 06:05:10;;;;;;;36.37;19.03;;;;;;;11.58;59.98;99051.16;5050506;28;20622;-84
2022/04/05 06:07:36;;;;;;;36.40;19.50;;;;;;;10.59;61.25;98916.00;5052973;28;20517;-84
2022/04/05 06:10:05;;;;;;;31.83;18.43;;;;;;;11.54;61.67;99111.03;5033873;28;20255;-84
2022/04/05 06:12:30;;;;;;;33.70;19.50;;;;;;;11.50;61.44;99062.72;5050684;28;20670;-84
2022/04/05 06:14:56;;;;;;;32.43;18.60;;;;;;;11.11;61.00;99026.72;5050778;28;20165;-85
2022/04/05 06:17:22;;;;;;;34.30;19.13;;;;;;;10.66;61.50;98967.69;5051085;28;20304;-85
2022/04/05 06:19:47;;;;;;;33.17;20.57;;;;;;;10.67;61.88;98987.13;5032064;28;20319;-85
2022/04/05 06:22:13;;;;;;;38.03;21.27;;;;;;;11.56;61.61;99103.50;5050623;28;20306;-85
2022/04/05 06:24:39;;;;;;;36.10;19.07;;;;;;;9.12;60.49;98676.25;5050453;28;20311;-85
2022/04/05 06:27:05;;;;;;;32.73;20.10;;;;;;;9.23;60.94;98687.63;5057755;28;20174;-85
2022/04/05 06:29:31;;;;;;;33.67;18.77;;;;;;;10.28;59.78;98808.56;5059823;28;20283;-85
2022/04/05 06:31:56;;;;;;;33.37;19.10;;;;;;;12.10;59.76;99107.91;5053740;28;20220;-85
2022/04/05 06:34:22;;;;;;;33.50;20.57;;;;;;;10.75;60.20;98921.56;5050569;28;20605;-84
2022/04/05 06:36:47;;;;;;;39.53;20.57;;;;;;;11.64;61.91;99115.63;5045365;28;20724;-85
2022/04/05 06:39:13;;;;;;;36.93;21.20;;;;;;;9.90;61.65;98802.97;5038784;28;20272;-85
2022/04/05 06:41:39;;;;;;;40.63;21.80;;;;;;;9.84;62.05;98807.81;5041058;28;20204;-84
2022/04/05 06:44:05;;;;;;;38.87;21.23;;;;;;;11.08;62.82;99051.94;5038391;28;20173;-85
2022/04/05 06:46:31;;;;;;;38.70;21.73;;;;;;;11.29;61.72;99047.59;5070640;28;20248;-86
2022/04/05 06:48:56;;;;;;;35.40;21.83;;;;;;;9.94;61.31;98797.22;5069064;28;20685;-86
2022/04/05 06:51:23;;;;;;;38.77;21.50;;;;;;;9.84;60.80;98763.97;5040061;28;20262;-86
2022/04/05 06:53:48;;;;;;;33.07;20.67;;;;;;;11.97;60.57;99115.94;5051525;28;20309;-85
2022/04/05 06:56:14;;;;;;;36.77;20.60;;;;;;;11.07;61.17;99018.13;5060579;28;20172;-85
2022/04/05 06:58:39;;;;;;;33.37;20.30;;;;;;;9.04;61.79;98668.38;5074405;28;20157;-85
2022/04/05 07:01:05;;;;;;;32.77;20.43;;;;;;;9.16;61.92;98701.66;5055110;28;20226;-86
2022/04/05 07:03:31;;;;;;;39.57;20.70;;;;;;;11.16;63.13;99076.72;5053734;28;20191;-85
2022/04/05 07:05:57;;;;;;;34.00;20.30;;;;;;;9.40;61.88;98706.75;5054067;28;20162;-85
2022/04/05 07:08:23;;;;;;;38.83;20.43;;;;;;;8.92;61.12;98632.59;5053912;28;20185;-85
2022/04/05 07:10:50;;;;;;;39.30;20.20;;;;;;;9.68;62.20;98770.13;5053105;28;20279;-85
2022/04/05 07:13:15;;;;;;;37.50;19.90;;;;;;;10.13;61.37;98803.84;5053840;28;20166;-86
2022/04/05 07:15:41;;;;;;;30.60;19.30;;;;;;;10.11;59.74;98703.41;5055639;28;20193;-85
2022/04/05 07:18:06;;;;;;;32.50;19.13;;;;;;;12.95;57.98;99115.66;5067016;28;20267;-84
2022/04/05 07:20:34;;;;;;;31.80;19.00;;;;;;;11.73;56.41;98829.41;5069073;28;20170;-85
2022/04/05 07:22:59;;;;;;;31.83;18.17;;;;;;;11.35;55.74;98737.81;5057121;28;20158;-86
2022/04/05 07:25:26;;;;;;;29.60;18.10;;;;;;;12.63;54.50;98870.91;5054646;28;20158;-85
2022/04/05 07:27:52;;;;;;;30.97;18.50;;;;;;;12.27;52.90;98773.47;5035407;28;20703;-87
2022/04/05 07:30:18;;;;;;;35.53;18.60;;;;;;;14.35;52.42;99113.59;5036176;28;20681;-86
2022/04/05 07:32:45;;;;;;;34.37;18.67;;;;;;;14.70;51.17;99114.41;5060538;28;20251;-88
2022/04/05 07:35:13;;;;;;;29.10;18.57;;;;;;;13.60;52.00;99013.25;5075355;28;20168;-86
2022/04/05 07:37:39;;;;;;;31.90;18.93;;;;;;;14.27;51.88;99120.16;5056186;28;20173;-86
2022/04/05 07:40:08;;;;;;;41.53;20.13;;;;;;;12.19;51.86;98737.75;5063852;28;20170;-87
2022/04/05 07:42:34;;;;;;;32.87;18.40;;;;;;;14.24;51.19;99053.88;5054427;28;20249;-86
2022/04/05 07:44:59;;;;;;;32.67;17.87;;;;;;;14.12;50.00;99033.22;5053698;28;20646;-84
2022/04/05 07:47:25;;;;;;;28.27;17.93;;;;;;;14.83;48.86;99054.38;5053592;28;20161;-86
2022/04/05 07:49:50;;;;;;;33.30;19.03;;;;;;;12.93;49.06;98723.50;5052930;28;20284;-86
2022/04/05 07:52:16;;;;;;;22.97;14.30;;;;;;;15.02;47.48;99130.41;5039390;28;20237;-86
2022/04/05 07:54:42;;;;;;;27.83;14.70;;;;;;;15.42;46.66;99120.19;5050384;28;20181;-87
2022/04/05 07:57:10;;;;;;;24.53;13.80;;;;;;;15.18;45.92;99056.81;5029771;28;20193;-87
2022/04/05 07:59:38;;;;;;;23.47;14.97;;;;;;;15.84;45.78;99110.84;5047391;28;20268;-87
2022/04/05 08:02:04;;;;;;;23.97;14.03;;;;;;;15.47;45.89;99105.00;5057872;28;20195;-87
2022/04/05 08:04:29;;;;;;;25.33;13.63;;;;;;;13.60;46.91;98875.91;5057398;28;20177;-85
2022/04/05 08:06:54;;;;;;;21.00;13.70;;;;;;;14.47;46.84;99004.38;5044328;28;20268;-86
2022/04/05 08:09:20;;;;;;;28.23;14.60;;;;;;;15.25;46.76;99111.34;5048974;28;20485;-87
2022/04/05 08:11:45;;;;;;;23.57;15.30;;;;;;;15.61;46.27;99101.91;5058937;28;20173;-86
2022/04/05 08:14:11;;;;;;;24.33;14.50;;;;;;;14.19;45.19;98795.78;5061629;28;20257;-86
2022/04/05 08:16:38;;;;;;;25.57;15.17;;;;;;;15.56;44.85;98972.53;5056168;28;20204;-85
2022/04/05 08:19:04;;;;;;;23.17;15.03;;;;;;;16.27;44.66;99107.31;5056482;28;20218;-87
2022/04/05 08:21:30;;;;;;;28.40;16.27;;;;;;;16.38;44.75;99104.94;5059179;28;20177;-86
2022/04/05 08:23:55;;;;;;;21.37;13.60;;;;;;;15.17;45.57;98978.59;5055743;28;20699;-87
2022/04/05 08:26:21;;;;;;;18.67;12.30;;;;;;;13.06;44.71;98694.16;5051776;28;20205;-86
2022/04/05 08:28:47;;;;;;;19.17;12.23;;;;;;;13.85;46.58;98996.91;5049167;28;20174;-86
2022/04/05 08:31:12;;;;;;;20.33;12.80;;;;;;;13.39;48.20;99028.84;5039080;28;20640;-86
2022/04/05 08:33:37;;;;;;;20.60;11.67;;;;;;;13.70;47.73;98974.53;5041855;28;20174;-87
2022/04/05 08:36:03;;;;;;;22.40;12.47;;;;;;;14.17;46.96;98968.84;5051900;28;20189;-87
2022/04/05 08:38:29;;;;;;;21.47;12.23;;;;;;;14.37;46.67;98956.59;5051129;28;20200;-87
2022/04/05 08:40:55;;;;;;;20.23;12.27;;;;;;;13.78;46.33;98883.13;5037112;28;20195;-86
2022/04/05 08:43:21;;;;;;;16.87;11.77;;;;;;;15.37;45.62;99081.00;5045731;28;20178;-87
2022/04/05 08:45:56;;;;;;;18.57;12.07;;;;;;;15.23;45.38;99018.66;5042151;28;20250;-85
2022/04/05 08:48:26;;;;;;;17.93;11.30;;;;;;;14.19;44.51;98814.47;5051845;28;20267;-86
2022/04/05 08:50:52;;;;;;;18.23;11.17;;;;;;;16.25;43.47;99067.28;5034947;28;20251;-85
2022/04/05 08:53:18;;;;;;;18.47;11.67;;;;;;;16.69;43.19;99067.97;5041248;28;20225;-86
2022/04/05 08:55:44;;;;;;;24.90;12.03;;;;;;;16.58;43.05;99072.06;5039706;28;20182;-86
2022/04/05 08:58:09;;;;;;;19.37;12.43;;;;;;;16.72;42.78;99063.75;5046380;28;20175;-86
2022/04/05 09:00:35;;;;;;;19.17;11.50;;;;;;;15.70;42.87;98920.88;5051002;28;20498;-85
2022/04/05 09:03:07;;;;;;;15.57;10.43;;;;;;;16.42;42.80;99065.84;5052211;28;20191;-86
2022/04/05 09:05:37;;;;;;;17.20;10.70;;;;;;;15.92;43.63;99053.13;5025452;28;20260;-86
2022/04/05 09:08:23;;;;;;;17.57;10.07;;;;;;;15.54;44.56;99043.06;5045034;28;20185;-86
2022/04/05 09:11:10;;;;;;;17.73;10.60;;;;;;;16.13;43.63;99041.53;5032817;28;20185;-87
2022/04/05 09:13:36;;;;;;;18.20;11.40;;;;;;;16.69;42.39;99040.72;5041791;28;20612;-85
2022/04/05 09:16:05;;;;;;;20.57;12.00;;;;;;;15.69;41.67;98818.78;5028951;28;20166;-87
2022/04/05 09:18:44;;;;;;;20.13;12.50;;;;;;;15.27;41.68;98793.47;5048663;28;20299;-85
2022/04/05 09:21:11;;;;;;;16.03;9.50;;;;;;;16.48;42.21;99035.28;5040206;28;20197;-87
2022/04/05 09:23:41;;;;;;;18.17;11.33;;;;;;;16.76;41.85;99037.38;5029972;28;20567;-86
2022/04/05 09:26:09;;;;;;;18.00;11.60;;;;;;;16.81;41.75;99035.75;5036048;28;20184;-87
2022/04/05 09:28:38;;;;;;;20.80;13.70;;;;;;;14.46;42.23;98744.53;5029899;28;20200;-86
2022/04/05 09:31:06;;;;;;;18.90;12.50;;;;;;;13.82;43.35;98646.63;5035663;28;20270;-86
2022/04/05 09:33:34;;;;;;;14.53;10.53;;;;;;;16.47;42.17;99028.44;5053936;28;20180;-86
2022/04/05 09:36:16;;;;;;;15.53;10.37;;;;;;;17.13;41.31;99031.03;5038559;28;20178;-88
2022/04/05 09:38:44;;;;;;;14.13;9.47;;;;;;;15.51;40.66;98750.50;5047681;28;20284;-86
2022/04/05 09:41:21;;;;;;;15.10;9.97;;;;;;;17.22;40.64;99026.03;5033514;28;20170;-85
2022/04/05 09:43:52;;;;;;;17.20;10.60;;;;;;;16.23;41.34;98980.41;5040807;28;20188;-85
2022/04/05 09:46:19;;;;;;;15.53;10.30;;;;;;;14.59;40.96;98686.19;5050206;28;20234;-86
2022/04/05 09:48:46;;;;;;;16.40;10.90;;;;;;;16.30;41.77;98982.22;5018186;28;20169;-86
2022/04/05 09:51:16;;;;;;;16.97;11.03;;;;;;;16.76;41.61;99028.84;5045527;28;20296;-86
2022/04/05 09:53:47;;;;;;;20.80;10.57;;;;;;;16.70;41.64;99024.50;5030015;28;20240;-86
2022/04/05 09:56:25;;;;;;;18.67;10.77;;;;;;;16.25;41.36;98866.34;5035644;28;20492;-86
2022/04/05 09:58:56;;;;;;;15.77;9.93;;;;;;;17.10;40.83;98934.66;5036286;28;20164;-85
2022/04/05 10:01:24;;;;;;;12.60;9.27;;;;;;;16.40;40.78;98856.28;5054038;28;20169;-85
2022/04/05 10:04:00;;;;;;;15.70;10.30;;;;;;;17.65;40.48;99012.00;5055178;28;20181;-86
2022/04/05 10:06:28;;;;;;;15.77;8.87;;;;;;;17.61;40.19;99005.13;5035813;28;20249;-86
2022/04/05 10:08:55;;;;;;;14.83;9.30;;;;;;;17.62;39.66;99001.72;5043983;28;20968;-87
2022/04/05 10:11:24;;;;;;;18.60;11.27;;;;;;;17.59;39.71;99006.81;5038993;28;20287;-86
2022/04/05 10:13:50;;;;;;;19.33;12.60;;;;;;;15.76;39.85;98632.59;5036188;28;20174;-87
2022/04/05 10:16:18;;;;;;;24.27;13.13;;;;;;;17.91;39.82;98991.75;5018354;28;20320;-86
2022/04/05 10:18:46;;;;;;;20.63;13.30;;;;;;;17.17;39.61;98858.00;5026994;28;20219;-86
2022/04/05 10:21:14;;;;;;;20.17;12.87;;;;;;;17.47;39.62;98999.00;5011710;28;20234;-85
2022/04/05 10:23:43;;;;;;;20.97;12.07;;;;;;;16.45;39.94;98869.16;5022420;28;20762;-88
2022/04/05 10:26:12;;;;;;;17.53;11.97;;;;;;;15.74;39.82;98738.06;5018201;28;20631;-85
2022/04/05 10:28:38;;;;;;;20.53;12.70;;;;;;;15.80;40.72;98751.72;5031714;28;20170;-87
2022/04/05 10:31:25;;;;;;;25.03;13.63;;;;;;;17.51;40.21;98972.56;5034597;28;20655;-86
2022/04/05 10:33:56;;;;;;;18.27;12.63;;;;;;;17.82;38.94;98966.91;5038037;28;20252;-85
2022/04/05 10:36:23;;;;;;;20.27;12.60;;;;;;;17.28;38.84;98798.38;5017970;28;20567;-87
2022/04/05 10:39:11;;;;;;;23.10;13.57;;;;;;;18.01;38.68;98968.78;5033690;28;20170;-86
2022/04/05 10:41:37;;;;;;;21.50;12.63;;;;;;;18.00;38.39;98974.72;5033589;28;20173;-87
2022/04/05 10:44:28;;;;;;;33.07;18.47;;;;;;;18.08;38.50;98961.97;5036516;28;20197;-86
2022/04/05 10:46:59;;;;;;;21.90;12.83;;;;;;;16.50;38.66;98734.63;4961973;28;20217;-86
2022/04/05 10:49:47;;;;;;;51.43;29.60;;;;;;;17.90;39.05;98952.47;4955401;28;20220;-86
2022/04/05 10:52:20;;;;;;;25.87;15.40;;;;;;;18.49;38.50;98939.16;4954200;28;20194;-87
2022/04/05 10:54:52;;;;;;;16.30;11.00;;;;;;;18.16;37.25;98909.94;4961996;28;20220;-86
2022/04/05 10:57:30;;;;;;;15.20;10.37;;;;;;;17.99;37.47;98937.13;4969686;28;20204;-86
2022/04/05 11:00:30;;;;;;;15.47;9.87;;;;;;;16.85;37.75;98815.06;4947205;28;20200;-86
2022/04/05 11:02:58;;;;;;;13.83;10.00;;;;;;;18.00;37.82;98931.19;4940028;29;20695;-87
2022/04/05 11:05:24;;;;;;;16.80;10.30;;;;;;;18.47;37.22;98928.88;4931897;29;20197;-86
2022/04/05 11:07:52;;;;;;;17.07;11.47;;;;;;;18.27;37.06;98921.09;4930554;29;20198;-86
2022/04/05 11:10:36;;;;;;;14.93;9.83;;;;;;;18.27;37.08;98915.97;4931292;29;20277;-87
2022/04/05 11:13:09;;;;;;;14.77;9.30;;;;;;;18.10;37.22;98929.56;4912160;29;20331;-87
2022/04/05 11:15:41;;;;;;;15.47;8.80;;;;;;;16.45;36.42;98644.31;4919165;29;20245;-86
2022/04/05 11:18:08;;;;;;;17.90;8.80;;;;;;;17.06;36.77;98792.25;4935754;29;20213;-88
2022/04/05 11:20:35;;;;;;;12.60;7.57;;;;;;;16.66;37.91;98726.28;4906168;29;20204;-87
2022/04/05 11:23:01;;;;;;;13.10;8.10;;;;;;;17.47;37.16;98837.78;4919092;29;20190;-87